createdAt,value
2018-01-04T00:00:02.890Z,6.46
2018-01-04T00:02:32.858Z,6.45
2018-01-04T00:05:02.158Z,6.49
2018-01-04T00:07:31.276Z,6.51
2018-01-04T00:10:00.426Z,6.47
2018-01-04T00:12:29.685Z,6.51
2018-01-04T00:14:58.813Z,6.49
2018-01-04T00:17:27.940Z,6.48
2018-01-04T00:19:57.160Z,6.46
2018-01-04T00:22:26.282Z,6.45
2018-01-04T00:24:56.228Z,6.47
2018-01-04T00:27:25.573Z,6.48
2018-01-04T00:29:54.726Z,6.56
2018-01-04T00:32:23.921Z,6.58
2018-01-04T00:34:53.111Z,6.53
2018-01-04T00:37:22.243Z,6.52
2018-01-04T00:39:52.278Z,6.54
2018-01-04T00:42:21.456Z,6.59
2018-01-04T00:44:51.048Z,6.63
2018-01-04T00:47:20.256Z,6.62
2018-01-04T00:49:49.467Z,6.60
2018-01-04T00:52:19.353Z,6.62
2018-01-04T00:54:48.473Z,6.61
2018-01-04T00:57:17.632Z,6.63
2018-01-04T00:59:46.721Z,6.61
2018-01-04T01:02:16.623Z,6.63
2018-01-04T01:04:45.758Z,6.59
2018-01-04T01:07:15.623Z,6.61
2018-01-04T01:09:44.713Z,6.60
2018-01-04T01:12:13.833Z,6.59
2018-01-04T01:14:42.946Z,6.60
2018-01-04T01:17:12.061Z,6.57
2018-01-04T01:19:41.385Z,6.61
2018-01-04T01:22:10.522Z,6.62
2018-01-04T01:24:39.615Z,6.63
2018-01-04T01:27:08.750Z,6.60
2018-01-04T01:29:38.604Z,6.62
2018-01-04T01:32:07.706Z,6.68
2018-01-04T01:34:37.386Z,6.69
2018-01-04T01:37:06.512Z,6.71
2018-01-04T01:39:35.601Z,6.68
2018-01-04T01:42:04.795Z,6.72
2018-01-04T01:44:33.903Z,6.72
2018-01-04T01:47:03.002Z,6.67
2018-01-04T01:49:32.924Z,6.68
2018-01-04T01:52:02.794Z,6.68
2018-01-04T01:54:31.891Z,6.66
2018-01-04T01:57:01.035Z,6.70
2018-01-04T01:59:30.270Z,6.71
2018-01-04T02:02:00.197Z,6.72
2018-01-04T02:04:30.002Z,6.66
2018-01-04T02:06:59.102Z,6.69
2018-01-04T02:09:28.258Z,6.71
2018-01-04T02:11:58.482Z,6.71
2018-01-04T02:14:27.594Z,6.70
2018-01-04T02:16:56.790Z,6.70
2018-01-04T02:19:43.994Z,6.68
2018-01-04T02:22:30.904Z,6.69
2018-01-04T02:25:19.595Z,6.61
2018-01-04T02:28:07.820Z,6.60
2018-01-04T02:30:54.907Z,6.54
2018-01-04T02:36:55.120Z,6.55
2018-01-04T02:39:41.980Z,6.52
2018-01-04T02:45:53.244Z,6.61
2018-01-04T02:48:22.492Z,6.60
2018-01-04T02:50:51.605Z,6.66
2018-01-04T02:53:20.710Z,6.68
2018-01-04T02:55:51.003Z,6.70
2018-01-04T02:58:20.074Z,6.72
2018-01-04T03:00:49.169Z,6.73
2018-01-04T03:03:18.304Z,6.78
2018-01-04T03:05:47.423Z,6.79
2018-01-04T03:08:16.513Z,6.74
2018-01-04T03:10:46.399Z,6.68
2018-01-04T03:13:16.266Z,6.60
2018-01-04T03:15:45.387Z,6.55
2018-01-04T03:18:15.333Z,6.51
2018-01-04T03:20:44.429Z,6.47
2018-01-04T03:23:19.251Z,6.40
2018-01-04T03:25:53.814Z,6.30
2018-01-04T03:28:28.600Z,6.22
2018-01-04T03:31:04.080Z,6.22
2018-01-04T03:33:38.741Z,6.15
2018-01-04T03:36:13.351Z,6.15
2018-01-04T03:38:47.870Z,6.13
2018-01-04T03:41:23.192Z,6.15
2018-01-04T03:43:58.763Z,6.10
2018-01-04T03:46:33.360Z,6.14
2018-01-04T03:49:08.030Z,6.17
2018-01-04T03:51:42.668Z,6.19
2018-01-04T03:54:17.233Z,6.23
2018-01-04T03:56:52.598Z,6.21
2018-01-04T03:59:27.399Z,6.16
2018-01-04T04:02:01.924Z,6.18
2018-01-04T04:04:36.977Z,6.15
2018-01-04T04:07:11.691Z,6.12
2018-01-04T04:09:40.832Z,6.10
2018-01-04T04:12:09.925Z,6.08
2018-01-04T04:14:39.018Z,6.06
2018-01-04T04:17:08.154Z,6.05
2018-01-04T04:19:37.288Z,6.00
2018-01-04T04:22:06.393Z,6.00
2018-01-04T04:24:36.258Z,5.98
2018-01-04T04:27:05.373Z,5.95
2018-01-04T04:29:34.463Z,5.95
2018-01-04T04:32:04.450Z,5.93
2018-01-04T04:34:33.556Z,5.92
2018-01-04T04:37:02.656Z,5.91
2018-01-04T04:39:32.523Z,5.91
2018-01-04T04:42:01.625Z,5.93
2018-01-04T04:44:31.537Z,5.89
2018-01-04T04:47:00.714Z,5.91
2018-01-04T04:49:29.834Z,5.91
2018-01-04T04:51:59.069Z,5.97
2018-01-04T04:54:28.584Z,6.01
2018-01-04T04:56:57.720Z,6.07
2018-01-04T04:59:27.639Z,6.11
2018-01-04T05:01:57.005Z,6.16
2018-01-04T05:04:26.217Z,6.21
2018-01-04T05:06:55.389Z,6.23
2018-01-04T05:09:25.413Z,6.24
2018-01-04T05:11:54.610Z,6.24
2018-01-04T05:14:24.523Z,6.25
2018-01-04T05:16:54.252Z,6.23
2018-01-04T05:19:24.423Z,6.24
2018-01-04T05:21:53.590Z,6.18
2018-01-04T05:24:23.559Z,6.14
2018-01-04T05:26:52.694Z,6.14
2018-01-04T05:29:22.682Z,6.11
2018-01-04T05:31:53.093Z,6.11
2018-01-04T05:34:22.240Z,6.13
2018-01-04T05:36:51.598Z,6.18
2018-01-04T05:39:20.824Z,6.22
2018-01-04T05:41:49.954Z,6.26
2018-01-04T05:44:19.062Z,6.32
2018-01-04T05:46:48.595Z,6.37
2018-01-04T05:49:18.510Z,6.42
2018-01-04T05:51:47.642Z,6.44
2018-01-04T05:54:17.571Z,6.45
2018-01-04T05:56:47.553Z,6.48
2018-01-04T05:59:16.668Z,6.48
2018-01-04T06:01:45.967Z,6.48
2018-01-04T06:04:15.118Z,6.46
2018-01-04T06:06:45.004Z,6.48
2018-01-04T06:09:14.160Z,6.51
2018-01-04T06:11:44.090Z,6.53
2018-01-04T06:14:14.936Z,6.57
2018-01-04T06:16:45.277Z,6.57
2018-01-04T06:19:14.364Z,6.60
2018-01-04T06:21:43.442Z,6.58
2018-01-04T06:24:12.589Z,6.58
2018-01-04T06:26:41.704Z,6.55
2018-01-04T06:29:11.636Z,6.54
2018-01-04T06:31:41.579Z,6.50
2018-01-04T06:34:10.661Z,6.42
2018-01-04T06:36:39.767Z,6.41
2018-01-04T06:39:09.687Z,6.33
2018-01-04T06:41:38.821Z,6.31
2018-01-04T06:44:08.710Z,6.22
2018-01-04T06:46:37.906Z,6.21
2018-01-04T06:49:07.010Z,6.22
2018-01-04T06:51:36.160Z,6.22
2018-01-04T06:54:06.175Z,6.23
2018-01-04T06:56:35.304Z,6.29
2018-01-04T06:59:04.418Z,6.31
2018-01-04T07:01:34.817Z,6.31
2018-01-04T07:04:03.967Z,6.32
2018-01-04T07:06:33.899Z,6.31
2018-01-04T07:09:03.060Z,6.28
2018-01-04T07:11:32.191Z,6.28
2018-01-04T07:14:01.401Z,6.21
2018-01-04T07:16:31.120Z,6.22
2018-01-04T07:19:00.225Z,6.21
2018-01-04T07:21:29.373Z,6.18
2018-01-04T07:23:59.286Z,6.20
2018-01-04T07:26:28.433Z,6.23
2018-01-04T07:28:57.658Z,6.25
2018-01-04T07:31:27.043Z,6.32
2018-01-04T07:33:56.261Z,6.35
2018-01-04T07:36:25.405Z,6.37
2018-01-04T07:38:54.672Z,6.39
2018-01-04T07:41:24.560Z,6.42
2018-01-04T07:43:53.859Z,6.45
2018-01-04T07:46:23.962Z,6.47
2018-01-04T07:48:53.074Z,6.52
2018-01-04T07:51:22.252Z,6.54
2018-01-04T07:53:52.187Z,6.57
2018-01-04T07:56:21.314Z,6.55
2018-01-04T07:58:50.426Z,6.55
2018-01-04T08:01:19.780Z,6.47
2018-01-04T08:03:48.915Z,6.48
2018-01-04T08:06:18.019Z,6.48
2018-01-04T08:08:47.666Z,6.48
2018-01-04T08:11:16.788Z,6.48
2018-01-04T08:13:45.915Z,6.45
2018-01-04T08:16:15.042Z,6.49
2018-01-04T08:18:44.138Z,6.48
2018-01-04T08:21:13.301Z,6.51
2018-01-04T08:23:44.248Z,6.50
2018-01-04T08:26:14.211Z,6.53
2018-01-04T08:28:43.327Z,6.53
2018-01-04T08:31:13.960Z,6.53
2018-01-04T08:33:43.053Z,6.57
2018-01-04T08:36:12.174Z,6.70
2018-01-04T08:38:41.683Z,6.94
2018-01-04T08:41:10.779Z,7.25
2018-01-04T08:43:40.638Z,7.63
2018-01-04T08:46:09.779Z,7.95
2018-01-04T08:48:38.878Z,8.19
2018-01-04T08:51:07.986Z,8.33
2018-01-04T08:53:37.919Z,8.40
2018-01-04T08:56:07.012Z,8.26
2018-01-04T08:58:36.098Z,8.39
2018-01-04T09:01:05.250Z,8.48
2018-01-04T09:03:34.405Z,8.38
2018-01-04T09:06:04.285Z,8.19
2018-01-04T09:08:33.535Z,7.87
2018-01-04T09:11:03.391Z,7.67
2018-01-04T09:13:32.491Z,7.48
2018-01-04T09:16:01.630Z,7.48
2018-01-04T09:18:30.742Z,7.73
2018-01-04T09:20:59.834Z,7.87
2018-01-04T09:23:28.979Z,7.83
2018-01-04T09:25:58.260Z,7.72
2018-01-04T09:28:27.487Z,7.60
2018-01-04T09:30:56.713Z,7.51
2018-01-04T09:33:27.516Z,7.44
2018-01-04T09:35:58.812Z,7.39
2018-01-04T09:38:27.978Z,7.33
2018-01-04T09:40:57.275Z,7.27
2018-01-04T09:43:27.966Z,7.23
2018-01-04T09:45:57.100Z,7.21
2018-01-04T09:48:27.014Z,7.18
2018-01-04T09:50:56.698Z,7.19
2018-01-04T09:53:25.964Z,7.18
2018-01-04T09:55:55.119Z,7.25
2018-01-04T09:58:24.403Z,7.31
2018-01-04T10:00:53.595Z,7.42
2018-01-04T10:03:23.602Z,7.46
2018-01-04T10:05:53.385Z,7.52
2018-01-04T10:08:23.300Z,7.54
2018-01-04T10:10:52.454Z,7.55
2018-01-04T10:13:22.156Z,7.61
2018-01-04T10:15:51.326Z,7.67
2018-01-04T10:18:20.424Z,7.59
2018-01-04T10:20:49.675Z,7.53
2018-01-04T10:23:19.533Z,7.45
2018-01-04T10:25:48.771Z,7.33
2018-01-04T10:28:18.195Z,7.30
2018-01-04T10:30:47.377Z,7.25
2018-01-04T10:33:16.966Z,7.26
2018-01-04T10:35:47.675Z,7.33
2018-01-04T10:38:16.783Z,7.41
2018-01-04T10:40:46.001Z,7.53
2018-01-04T10:43:15.157Z,7.61
2018-01-04T10:45:44.339Z,7.67
2018-01-04T10:48:13.651Z,7.72
2018-01-04T10:50:43.674Z,7.76
2018-01-04T10:53:12.820Z,7.78
2018-01-04T10:55:42.047Z,7.78
2018-01-04T10:58:11.220Z,7.79
2018-01-04T11:00:40.398Z,7.83
2018-01-04T11:03:09.589Z,7.82
2018-01-04T11:05:38.863Z,7.80
2018-01-04T11:08:08.761Z,7.81
2018-01-04T11:10:37.930Z,7.84
2018-01-04T11:13:07.481Z,7.85
2018-01-04T11:15:36.569Z,7.90
2018-01-04T11:18:05.674Z,7.90
2018-01-04T11:20:34.853Z,7.95
2018-01-04T11:23:04.804Z,8.00
2018-01-04T11:25:33.944Z,8.07
2018-01-04T11:28:03.494Z,8.07
2018-01-04T11:30:33.745Z,8.12
2018-01-04T11:33:03.372Z,8.12
2018-01-04T11:35:32.962Z,8.09
2018-01-04T11:38:02.929Z,8.12
2018-01-04T11:40:32.160Z,8.19
2018-01-04T11:43:01.342Z,8.30
2018-01-04T11:45:30.457Z,8.45
2018-01-04T11:47:59.696Z,8.49
2018-01-04T11:50:29.248Z,8.52
2018-01-04T11:52:58.411Z,8.61
2018-01-04T11:55:28.353Z,8.72
2018-01-04T11:57:57.585Z,8.75
2018-01-04T12:00:27.107Z,8.73
2018-01-04T12:02:56.449Z,8.77
2018-01-04T12:05:26.458Z,8.82
2018-01-04T12:07:55.582Z,8.89
2018-01-04T12:10:24.973Z,8.83
2018-01-04T12:12:54.340Z,8.79
2018-01-04T12:15:23.779Z,8.83
2018-01-04T12:17:52.970Z,8.77
2018-01-04T12:20:22.335Z,8.73
2018-01-04T12:22:51.577Z,8.70
2018-01-04T12:25:21.473Z,8.64
2018-01-04T12:27:50.614Z,8.62
2018-01-04T12:30:19.762Z,8.66
2018-01-04T12:32:48.882Z,8.61
2018-01-04T12:35:18.133Z,8.56
2018-01-04T12:37:47.230Z,8.60
2018-01-04T12:40:16.427Z,8.64
2018-01-04T12:42:46.374Z,8.57
2018-01-04T12:45:15.461Z,8.54
2018-01-04T12:50:26.613Z,8.56
2018-01-04T12:52:55.861Z,8.52
2018-01-04T12:55:25.951Z,8.52
2018-01-04T12:57:55.484Z,8.56
2018-01-04T13:00:24.661Z,8.65
2018-01-04T13:02:53.821Z,8.64
2018-01-04T13:05:23.110Z,8.64
2018-01-04T13:07:52.293Z,8.65
2018-01-04T13:10:21.448Z,8.61
2018-01-04T13:12:52.954Z,8.57
2018-01-04T13:15:22.173Z,8.58
2018-01-04T13:17:51.364Z,8.55
2018-01-04T13:20:20.631Z,8.58
2018-01-04T13:22:50.489Z,8.63
2018-01-04T13:25:19.763Z,8.67
2018-01-04T13:27:49.471Z,8.67
2018-01-04T13:30:18.733Z,8.63
2018-01-04T13:32:47.853Z,8.58
2018-01-04T13:35:17.129Z,8.62
2018-01-04T13:37:46.349Z,8.66
2018-01-04T13:40:16.274Z,8.62
2018-01-04T13:42:45.993Z,8.53
2018-01-04T13:45:15.135Z,8.56
2018-01-04T13:47:44.518Z,8.53
2018-01-04T13:50:13.677Z,8.53
2018-01-04T13:52:42.778Z,8.51
2018-01-04T13:55:11.929Z,8.46
2018-01-04T13:57:41.098Z,8.49
2018-01-04T14:00:10.219Z,8.52
2018-01-04T14:02:39.416Z,8.54
2018-01-04T14:05:08.647Z,8.57
2018-01-04T14:07:37.762Z,8.58
2018-01-04T14:10:07.674Z,8.58
2018-01-04T14:12:36.839Z,8.62
2018-01-04T14:15:07.450Z,8.61
2018-01-04T14:17:36.703Z,8.60
2018-01-04T14:20:07.423Z,8.57
2018-01-04T14:22:37.340Z,8.55
2018-01-04T14:25:06.756Z,8.58
2018-01-04T14:27:36.082Z,8.52
2018-01-04T14:30:05.338Z,8.52
2018-01-04T14:32:35.249Z,8.47
2018-01-04T14:35:06.214Z,8.41
2018-01-04T14:37:36.105Z,8.29
2018-01-04T14:40:05.294Z,8.21
2018-01-04T14:42:34.531Z,8.14
2018-01-04T14:45:03.657Z,8.10
2018-01-04T14:47:32.798Z,8.17
2018-01-04T14:50:03.510Z,8.17
2018-01-04T14:52:33.340Z,8.23
2018-01-04T14:55:02.481Z,8.23
2018-01-04T14:57:31.993Z,8.23
2018-01-04T15:00:01.875Z,8.23
2018-01-04T15:02:31.098Z,8.15
2018-01-04T15:05:01.276Z,8.10
2018-01-04T15:07:30.513Z,8.14
2018-01-04T15:10:01.350Z,8.20
2018-01-04T15:12:30.511Z,8.23
2018-01-04T15:14:59.730Z,8.27
2018-01-04T15:17:29.696Z,8.28
2018-01-04T15:19:58.900Z,8.29
2018-01-04T15:22:28.062Z,8.27
2018-01-04T15:24:58.257Z,8.27
2018-01-04T15:27:27.526Z,8.27
2018-01-04T15:29:57.541Z,8.31
2018-01-04T15:32:26.741Z,8.27
2018-01-04T15:34:56.502Z,8.22
2018-01-04T15:37:26.436Z,8.24
2018-01-04T15:39:56.382Z,8.22
2018-01-04T15:42:25.574Z,8.20
2018-01-04T15:44:54.762Z,8.25
2018-01-04T15:47:23.898Z,8.23
2018-01-04T15:49:53.596Z,8.29
2018-01-04T15:52:23.750Z,8.30
2018-01-04T15:54:53.665Z,8.32
2018-01-04T15:57:25.642Z,8.31
2018-01-04T15:59:55.674Z,8.26
2018-01-04T16:02:25.622Z,8.24
2018-01-04T16:04:55.055Z,8.19
2018-01-04T16:07:24.264Z,8.17
2018-01-04T16:09:53.416Z,8.17
2018-01-04T16:12:22.713Z,8.17
2018-01-04T16:14:51.867Z,8.15
2018-01-04T16:17:21.840Z,8.15
2018-01-04T16:19:51.076Z,8.12
2018-01-04T16:22:21.030Z,8.13
2018-01-04T16:24:50.978Z,8.10
2018-01-04T16:27:20.999Z,8.10
2018-01-04T16:29:50.120Z,8.11
2018-01-04T16:32:19.220Z,8.14
2018-01-04T16:34:49.196Z,8.16
2018-01-04T16:37:18.937Z,8.20
2018-01-04T16:39:48.066Z,8.22
2018-01-04T16:42:18.782Z,8.29
2018-01-04T16:44:47.920Z,8.32
2018-01-04T16:47:17.805Z,8.36
2018-01-04T16:49:47.899Z,8.36
2018-01-04T16:52:17.153Z,8.38
2018-01-04T16:54:47.262Z,8.38
2018-01-04T16:57:16.413Z,8.39
2018-01-04T16:59:45.505Z,8.40
2018-01-04T17:02:14.971Z,8.42
2018-01-04T17:04:45.056Z,8.43
2018-01-04T17:07:14.845Z,8.43
2018-01-04T17:09:44.043Z,8.38
2018-01-04T17:12:13.215Z,8.36
2018-01-04T17:14:42.336Z,8.33
2018-01-04T17:17:11.441Z,8.31
2018-01-04T17:19:40.702Z,8.29
2018-01-04T17:22:09.864Z,8.29
2018-01-04T17:24:38.982Z,8.26
2018-01-04T17:27:08.995Z,8.25
2018-01-04T17:29:38.243Z,8.28
2018-01-04T17:32:08.665Z,8.28
2018-01-04T17:34:39.547Z,8.26
2018-01-04T17:37:10.227Z,8.26
2018-01-04T17:39:39.689Z,8.24
2018-01-04T17:42:08.935Z,8.24
2018-01-04T17:44:38.104Z,8.20
2018-01-04T17:47:08.277Z,8.17
2018-01-04T17:49:38.551Z,8.18
2018-01-04T17:52:08.527Z,8.16
2018-01-04T17:54:37.841Z,8.14
2018-01-04T17:57:07.846Z,8.13
2018-01-04T17:59:40.913Z,8.10
2018-01-04T18:02:11.711Z,8.05
2018-01-04T18:04:42.075Z,8.04
2018-01-04T18:07:14.140Z,8.02
2018-01-04T18:09:44.218Z,7.98
2018-01-04T18:12:13.371Z,7.97
2018-01-04T18:14:42.755Z,7.95
2018-01-04T18:17:11.903Z,7.92
2018-01-04T18:19:41.109Z,7.93
2018-01-04T18:22:10.282Z,7.95
2018-01-04T18:24:39.441Z,7.99
2018-01-04T18:27:08.564Z,7.99
2018-01-04T18:29:37.713Z,8.05
2018-01-04T18:32:06.855Z,8.08
2018-01-04T18:34:36.784Z,8.14
2018-01-04T18:37:07.625Z,8.16
2018-01-04T18:39:36.733Z,8.16
2018-01-04T18:42:05.838Z,8.15
2018-01-04T18:44:35.014Z,8.13
2018-01-04T18:47:04.142Z,8.11
2018-01-04T18:49:33.301Z,8.12
2018-01-04T18:52:02.461Z,8.15
2018-01-04T18:54:32.363Z,8.16
2018-01-04T18:57:01.528Z,8.16
2018-01-04T18:59:31.117Z,8.15
2018-01-04T19:02:00.397Z,8.15
2018-01-04T19:04:29.604Z,8.17
2018-01-04T19:06:59.466Z,8.15
2018-01-04T19:09:28.618Z,8.16
2018-01-04T19:11:58.611Z,8.14
2018-01-04T19:14:28.100Z,8.16
2018-01-04T19:16:57.471Z,8.14
2018-01-04T19:19:27.010Z,8.15
2018-01-04T19:21:58.307Z,8.18
2018-01-04T19:24:27.757Z,8.19
2018-01-04T19:26:57.024Z,8.21
2018-01-04T19:29:26.489Z,8.20
2018-01-04T19:31:55.955Z,8.19
2018-01-04T19:34:26.786Z,8.18
2018-01-04T19:36:56.256Z,8.17
2018-01-04T19:39:25.469Z,8.17
2018-01-04T19:41:54.650Z,8.16
2018-01-04T19:44:24.343Z,8.13
2018-01-04T19:46:53.555Z,8.09
2018-01-04T19:49:23.486Z,8.10
2018-01-04T19:51:53.556Z,8.12
2018-01-04T19:54:22.796Z,8.10
2018-01-04T19:56:51.981Z,8.07
2018-01-04T19:59:21.171Z,8.07
2018-01-04T20:01:50.294Z,8.06
2018-01-04T20:04:19.427Z,8.06
2018-01-04T20:06:48.625Z,8.04
2018-01-04T20:09:17.749Z,8.05
2018-01-04T20:11:46.935Z,8.04
2018-01-04T20:14:16.115Z,8.02
2018-01-04T20:16:45.463Z,8.03
2018-01-04T20:19:14.731Z,8.04
2018-01-04T20:21:44.081Z,8.00
2018-01-04T20:24:13.244Z,8.00
2018-01-04T20:26:42.464Z,8.00
2018-01-04T20:29:11.974Z,8.01
2018-01-04T20:31:41.162Z,8.05
2018-01-04T20:34:11.192Z,8.04
2018-01-04T20:36:41.803Z,8.02
2018-01-04T20:39:11.694Z,8.03
2018-01-04T20:41:41.929Z,8.07
2018-01-04T20:44:11.081Z,8.08
2018-01-04T20:46:40.191Z,8.00
2018-01-04T20:49:09.321Z,8.01
2018-01-04T20:51:38.878Z,7.98
2018-01-04T20:54:08.003Z,7.93
2018-01-04T20:56:37.137Z,7.90
2018-01-04T20:59:06.309Z,7.91
2018-01-04T21:01:35.415Z,7.87
2018-01-04T21:04:04.751Z,7.84
2018-01-04T21:06:35.154Z,7.82
2018-01-04T21:09:04.440Z,7.83
2018-01-04T21:11:33.568Z,7.78
2018-01-04T21:14:02.965Z,7.77
2018-01-04T21:16:32.267Z,7.77
2018-01-04T21:19:01.690Z,7.78
2018-01-04T21:21:31.149Z,7.78
2018-01-04T21:24:00.496Z,7.78
2018-01-04T21:26:29.741Z,7.80
2018-01-04T21:29:00.221Z,7.80
2018-01-04T21:31:29.525Z,7.81
2018-01-04T21:33:58.738Z,7.80
2018-01-04T21:36:28.383Z,7.77
2018-01-04T21:38:57.703Z,7.76
2018-01-04T21:41:27.050Z,7.75
2018-01-04T21:43:56.351Z,7.74
2018-01-04T21:46:25.514Z,7.75
2018-01-04T21:48:54.714Z,7.76
2018-01-04T21:51:24.046Z,7.77
2018-01-04T21:53:53.376Z,7.77
2018-01-04T21:56:23.260Z,7.76
2018-01-04T21:58:52.691Z,7.74
2018-01-04T22:01:21.969Z,7.76
2018-01-04T22:03:51.687Z,7.79
2018-01-04T22:06:20.884Z,7.83
2018-01-04T22:08:50.055Z,7.85
2018-01-04T22:11:19.989Z,7.83
2018-01-04T22:13:49.216Z,7.81
2018-01-04T22:16:20.084Z,7.79
2018-01-04T22:18:50.062Z,7.74
2018-01-04T22:21:20.248Z,7.75
2018-01-04T22:23:49.400Z,7.73
2018-01-04T22:26:18.528Z,7.73
2018-01-04T22:28:48.261Z,7.71
2018-01-04T22:31:17.361Z,7.72
2018-01-04T22:33:46.542Z,7.67
2018-01-04T22:36:15.721Z,7.67
2018-01-04T22:38:44.907Z,7.61
2018-01-04T22:41:14.951Z,7.64
2018-01-04T22:43:44.906Z,7.66
2018-01-04T22:46:14.069Z,7.68
2018-01-04T22:48:43.200Z,7.67
2018-01-04T22:51:13.320Z,7.67
2018-01-04T22:53:43.210Z,7.65
2018-01-04T22:56:12.380Z,7.61
2018-01-04T22:58:41.588Z,7.59
2018-01-04T23:01:10.677Z,7.59
2018-01-04T23:03:39.856Z,7.58
2018-01-04T23:06:09.127Z,7.59
2018-01-04T23:08:38.240Z,7.59
2018-01-04T23:11:07.369Z,7.62
2018-01-04T23:13:36.517Z,7.63
2018-01-04T23:16:05.644Z,7.62
2018-01-04T23:18:35.597Z,7.62
2018-01-04T23:21:06.401Z,7.62
2018-01-04T23:23:35.510Z,7.55
2018-01-04T23:26:04.653Z,7.55
2018-01-04T23:28:34.566Z,7.54
2018-01-04T23:31:03.708Z,7.51
2018-01-04T23:33:32.859Z,7.51
2018-01-04T23:36:02.797Z,7.44
2018-01-04T23:38:31.936Z,7.42
2018-01-04T23:41:01.047Z,7.42
2018-01-04T23:43:31.160Z,7.45
2018-01-04T23:46:00.322Z,7.48
2018-01-04T23:48:29.687Z,7.45
2018-01-04T23:50:58.949Z,7.48
2018-01-04T23:53:28.249Z,7.48
2018-01-04T23:55:57.538Z,7.48
2018-01-04T23:58:26.824Z,7.46
